createdAt,value
2019-03-13T00:00:56.354Z,79.05
2019-03-13T00:04:58.203Z,78.87
2019-03-13T00:09:00.037Z,79.34
2019-03-13T00:13:02.003Z,78.44
2019-03-13T00:17:03.878Z,77.66
2019-03-13T00:21:05.737Z,77.86
2019-03-13T00:25:07.814Z,77.94
2019-03-13T00:29:09.534Z,76.99
2019-03-13T00:33:11.285Z,77.17
2019-03-13T00:37:13.016Z,75.97
2019-03-13T00:41:14.672Z,75.75
2019-03-13T00:45:16.445Z,75.25
2019-03-13T00:49:18.328Z,75.81
2019-03-13T00:53:20.107Z,75.11
2019-03-13T00:57:21.985Z,75.25
2019-03-13T01:01:38.339Z,74.80
2019-03-13T01:05:44.823Z,74.76
2019-03-13T01:09:46.553Z,74.76
2019-03-13T01:13:48.252Z,75.03
2019-03-13T01:17:49.994Z,75.21
2019-03-13T01:21:51.843Z,74.96
2019-03-13T01:25:53.506Z,75.64
2019-03-13T01:29:55.255Z,75.09
2019-03-13T01:34:11.728Z,75.13
2019-03-13T01:38:13.722Z,75.19
2019-03-13T01:42:15.339Z,74.98
2019-03-13T01:46:17.141Z,74.46
2019-03-13T01:50:18.880Z,74.74
2019-03-13T01:54:20.573Z,74.37
2019-03-13T01:58:22.224Z,74.02
2019-03-13T02:02:24.003Z,74.53
2019-03-13T02:06:25.661Z,74.55
2019-03-13T02:10:34.379Z,74.73
2019-03-13T02:14:36.011Z,74.40
2019-03-13T02:18:37.854Z,74.27
2019-03-13T02:22:39.621Z,74.19
2019-03-13T02:26:41.681Z,74.02
2019-03-13T02:30:43.313Z,74.06
2019-03-13T02:34:45.103Z,73.63
2019-03-13T02:38:46.770Z,73.68
2019-03-13T02:42:48.514Z,73.62
2019-03-13T02:46:50.199Z,73.36
2019-03-13T02:50:51.954Z,72.88
2019-03-13T02:54:53.645Z,73.15
2019-03-13T02:58:55.354Z,72.50
2019-03-13T03:02:59.399Z,72.60
2019-03-13T03:07:01.063Z,72.28
2019-03-13T03:11:02.803Z,72.50
2019-03-13T03:15:07.991Z,72.60
2019-03-13T03:19:09.925Z,72.37
2019-03-13T03:23:11.653Z,72.48
2019-03-13T03:27:13.311Z,72.59
2019-03-13T03:31:15.063Z,72.62
2019-03-13T03:35:16.994Z,72.57
2019-03-13T03:39:18.863Z,72.85
2019-03-13T03:43:20.527Z,73.14
2019-03-13T03:47:22.375Z,72.57
2019-03-13T03:51:24.108Z,72.96
2019-03-13T03:55:25.895Z,72.87
2019-03-13T03:59:27.657Z,72.89
2019-03-13T04:03:29.517Z,72.76
2019-03-13T04:07:31.262Z,73.04
2019-03-13T04:11:33.016Z,72.15
2019-03-13T04:15:34.743Z,72.02
2019-03-13T04:19:36.448Z,71.82
2019-03-13T04:23:38.114Z,71.92
2019-03-13T04:27:40.194Z,71.18
2019-03-13T04:31:41.849Z,70.74
2019-03-13T04:35:43.591Z,70.79
2019-03-13T04:39:45.234Z,70.10
2019-03-13T04:43:46.892Z,69.74
2019-03-13T04:47:48.521Z,69.70
2019-03-13T04:51:50.274Z,69.64
2019-03-13T04:55:52.742Z,69.03
2019-03-13T04:59:54.646Z,69.03
2019-03-13T05:03:56.398Z,68.77
2019-03-13T05:07:58.113Z,68.91
2019-03-13T05:11:59.866Z,68.75
2019-03-13T05:16:01.863Z,68.85
2019-03-13T05:20:03.794Z,68.55
2019-03-13T05:24:05.560Z,68.64
2019-03-13T05:28:07.178Z,68.64
2019-03-13T05:32:09.008Z,68.49
2019-03-13T05:36:10.861Z,68.78
2019-03-13T05:40:12.612Z,68.79
2019-03-13T05:44:14.371Z,68.85
2019-03-13T05:48:16.148Z,69.02
2019-03-13T05:52:17.789Z,68.45
2019-03-13T05:56:19.649Z,68.49
2019-03-13T06:00:22.852Z,68.91
2019-03-13T06:04:24.765Z,68.28
2019-03-13T06:08:26.501Z,68.11
2019-03-13T06:12:28.139Z,67.83
2019-03-13T06:16:29.791Z,68.26
2019-03-13T06:20:31.680Z,68.53
2019-03-13T06:24:33.349Z,68.19
2019-03-13T06:28:35.088Z,68.59
2019-03-13T06:32:36.698Z,68.55
2019-03-13T06:36:38.473Z,67.86
2019-03-13T06:40:40.112Z,68.01
2019-03-13T06:44:41.763Z,67.97
2019-03-13T06:48:43.412Z,68.14
2019-03-13T06:52:45.279Z,68.28
2019-03-13T06:56:47.039Z,70.09
2019-03-13T07:01:06.380Z,71.71
2019-03-13T07:05:18.519Z,71.90
2019-03-13T07:09:44.027Z,73.51
2019-03-13T07:14:00.536Z,73.79
2019-03-13T07:18:21.145Z,73.12
2019-03-13T07:22:33.368Z,73.13
2019-03-13T07:26:43.122Z,72.69
2019-03-13T07:31:07.259Z,72.43
2019-03-13T07:35:25.979Z,71.36
2019-03-13T07:39:34.402Z,72.50
2019-03-13T07:43:58.486Z,75.96
2019-03-13T07:48:19.021Z,77.12
2019-03-13T07:52:46.380Z,76.27
2019-03-13T07:57:06.481Z,74.46
2019-03-13T08:01:21.332Z,73.80
2019-03-13T08:05:37.791Z,73.20
2019-03-13T08:09:49.450Z,73.60
2019-03-13T08:14:16.911Z,74.31
2019-03-13T08:18:53.206Z,74.61
2019-03-13T08:23:03.469Z,75.08
2019-03-13T08:27:17.935Z,75.23
2019-03-13T08:31:32.767Z,74.91
2019-03-13T08:35:57.391Z,74.60
2019-03-13T08:40:36.602Z,73.54
2019-03-13T08:44:47.233Z,72.92
2019-03-13T08:49:01.650Z,72.22
2019-03-13T08:53:13.403Z,70.91
2019-03-13T08:57:34.825Z,70.86
2019-03-13T09:01:50.534Z,71.25
2019-03-13T09:06:00.289Z,70.80
2019-03-13T09:10:31.288Z,70.83
2019-03-13T09:14:44.683Z,71.68
2019-03-13T09:19:04.782Z,75.09
2019-03-13T09:23:24.877Z,76.88
2019-03-13T09:27:44.985Z,77.90
2019-03-13T09:32:21.511Z,78.64
2019-03-13T09:36:49.028Z,79.05
2019-03-13T09:41:10.579Z,80.80
2019-03-13T09:45:34.851Z,78.31
2019-03-13T09:49:46.534Z,79.54
2019-03-13T09:54:13.818Z,80.82
2019-03-13T09:58:34.213Z,83.34
2019-03-13T10:02:51.794Z,84.48
2019-03-13T10:07:01.010Z,84.58
2019-03-13T10:11:09.029Z,85.36
2019-03-13T10:15:33.604Z,85.50
2019-03-13T10:19:46.664Z,85.11
2019-03-13T10:24:03.784Z,83.98
2019-03-13T10:28:10.829Z,85.04
2019-03-13T10:32:32.216Z,85.16
2019-03-13T10:37:02.599Z,84.32
2019-03-13T10:41:22.332Z,83.34
2019-03-13T10:45:39.543Z,82.55
2019-03-13T10:49:46.209Z,82.64
2019-03-13T10:54:03.172Z,82.50
2019-03-13T10:58:30.236Z,82.66
2019-03-13T11:02:45.127Z,81.99
2019-03-13T11:07:09.324Z,81.15
2019-03-13T11:11:19.376Z,81.04
2019-03-13T11:15:49.676Z,81.99
2019-03-13T11:20:14.107Z,81.65
2019-03-13T11:24:22.333Z,80.73
2019-03-13T11:28:33.032Z,80.78
2019-03-13T11:32:43.580Z,80.79
2019-03-13T11:37:12.379Z,80.21
2019-03-13T11:41:32.810Z,79.70
2019-03-13T11:45:48.150Z,79.50
2019-03-13T11:50:15.330Z,77.83
2019-03-13T11:54:39.203Z,77.54
2019-03-13T11:59:09.498Z,76.64
2019-03-13T12:03:31.301Z,76.35
2019-03-13T12:07:45.577Z,76.03
2019-03-13T12:12:11.063Z,75.87
2019-03-13T12:16:20.565Z,75.34
2019-03-13T12:20:46.860Z,76.37
2019-03-13T12:25:00.418Z,77.55
2019-03-13T12:29:30.033Z,80.30
2019-03-13T12:33:42.675Z,82.60
2019-03-13T12:38:02.766Z,85.67
2019-03-13T12:42:39.392Z,86.31
2019-03-13T12:46:50.307Z,85.83
2019-03-13T12:51:10.512Z,85.46
2019-03-13T12:55:32.083Z,86.34
2019-03-13T12:59:59.536Z,86.28
2019-03-13T13:04:10.873Z,87.35
2019-03-13T13:08:37.979Z,87.74
2019-03-13T13:12:47.640Z,87.87
2019-03-13T13:17:01.207Z,87.42
2019-03-13T13:21:03.094Z,88.01
2019-03-13T13:25:05.804Z,88.43
2019-03-13T13:29:07.440Z,88.71
2019-03-13T13:33:09.385Z,88.70
2019-03-13T13:37:11.322Z,88.66
2019-03-13T13:41:13.089Z,89.28
2019-03-13T13:45:59.111Z,88.71
2019-03-13T13:50:00.810Z,88.77
2019-03-13T13:54:02.780Z,89.44
2019-03-13T13:58:04.829Z,89.53
2019-03-13T14:02:06.704Z,88.99
2019-03-13T14:06:08.397Z,87.82
2019-03-13T14:10:10.278Z,87.75
2019-03-13T14:14:11.900Z,86.79
2019-03-13T14:18:13.545Z,87.25
2019-03-13T14:22:15.262Z,86.73
2019-03-13T14:26:17.107Z,87.88
2019-03-13T14:30:19.327Z,87.69
2019-03-13T14:34:21.127Z,88.17
2019-03-13T14:38:22.935Z,88.20
2019-03-13T14:42:24.669Z,89.16
2019-03-13T14:46:26.310Z,89.89
2019-03-13T14:50:28.133Z,89.68
2019-03-13T14:54:29.772Z,89.18
2019-03-13T14:58:31.532Z,88.24
2019-03-13T15:02:33.279Z,88.76
2019-03-13T15:06:34.995Z,89.12
2019-03-13T15:10:36.616Z,89.33
2019-03-13T15:14:38.372Z,90.28
2019-03-13T15:18:40.017Z,90.22
2019-03-13T15:22:41.852Z,89.28
2019-03-13T15:26:43.484Z,88.67
2019-03-13T15:30:45.291Z,89.06
2019-03-13T15:34:46.950Z,88.98
2019-03-13T15:38:48.830Z,88.81
2019-03-13T15:42:50.549Z,89.03
2019-03-13T15:46:52.195Z,90.13
2019-03-13T15:50:53.845Z,89.70
2019-03-13T15:54:55.585Z,89.22
2019-03-13T15:58:57.210Z,89.24
2019-03-13T16:02:59.042Z,87.86
2019-03-13T16:07:00.901Z,88.20
2019-03-13T16:11:02.762Z,87.89
2019-03-13T16:15:06.249Z,86.48
2019-03-13T16:19:07.900Z,86.75
2019-03-13T16:23:09.823Z,88.29
2019-03-13T16:27:11.575Z,89.09
2019-03-13T16:31:13.303Z,89.41
2019-03-13T16:35:15.092Z,88.70
2019-03-13T16:39:16.930Z,88.84
2019-03-13T16:43:18.794Z,88.99
2019-03-13T16:47:20.793Z,89.15
2019-03-13T16:51:22.601Z,89.82
2019-03-13T16:55:24.344Z,89.77
2019-03-13T16:59:26.114Z,89.57
2019-03-13T17:03:27.726Z,88.97
2019-03-13T17:07:29.790Z,89.28
2019-03-13T17:11:38.277Z,89.47
2019-03-13T17:15:42.181Z,90.32
2019-03-13T17:19:43.907Z,89.26
2019-03-13T17:23:45.685Z,90.12
2019-03-13T17:27:48.017Z,89.70
2019-03-13T17:31:49.770Z,89.93
2019-03-13T17:35:51.406Z,90.01
2019-03-13T17:39:53.431Z,90.23
2019-03-13T17:43:55.043Z,89.70
2019-03-13T17:47:57.130Z,89.02
2019-03-13T17:51:58.884Z,89.25
2019-03-13T17:56:00.690Z,89.55
2019-03-13T18:00:03.908Z,90.29
2019-03-13T18:04:05.725Z,89.11
2019-03-13T18:08:07.478Z,88.79
2019-03-13T18:12:09.343Z,89.06
2019-03-13T18:16:11.148Z,89.62
2019-03-13T18:20:14.659Z,89.37
2019-03-13T18:24:16.380Z,89.22
2019-03-13T18:28:18.353Z,89.67
2019-03-13T18:32:19.959Z,90.01
2019-03-13T18:36:22.036Z,89.98
2019-03-13T18:40:23.895Z,89.68
2019-03-13T18:44:25.727Z,89.43
2019-03-13T18:48:27.474Z,89.21
2019-03-13T18:52:29.418Z,88.25
2019-03-13T18:56:31.210Z,89.92
2019-03-13T19:00:33.181Z,87.98
2019-03-13T19:04:35.045Z,86.29
2019-03-13T19:08:36.839Z,83.08
2019-03-13T19:12:38.686Z,82.31
2019-03-13T19:16:40.345Z,81.48
2019-03-13T19:20:42.049Z,79.55
2019-03-13T19:24:43.699Z,80.72
2019-03-13T19:28:47.086Z,80.91
2019-03-13T19:32:49.137Z,78.87
2019-03-13T19:36:51.334Z,78.71
2019-03-13T19:40:53.230Z,81.25
2019-03-13T19:44:54.847Z,82.66
2019-03-13T19:48:56.510Z,83.47
2019-03-13T19:52:58.384Z,81.91
2019-03-13T19:57:00.066Z,79.90
2019-03-13T20:01:02.349Z,78.38
2019-03-13T20:05:04.554Z,79.09
2019-03-13T20:09:06.844Z,80.29
2019-03-13T20:13:08.803Z,81.54
2019-03-13T20:17:12.422Z,81.72
2019-03-13T20:21:16.080Z,82.05
2019-03-13T20:25:19.955Z,82.38
2019-03-13T20:29:23.525Z,82.71
2019-03-13T20:33:27.267Z,82.81
2019-03-13T20:37:30.930Z,81.98
2019-03-13T20:41:34.653Z,81.45
2019-03-13T20:45:38.319Z,81.58
2019-03-13T20:49:42.263Z,81.32
2019-03-13T20:53:45.876Z,81.39
2019-03-13T20:57:49.642Z,81.34
2019-03-13T21:02:03.732Z,80.49
2019-03-13T21:06:08.317Z,81.01
2019-03-13T21:10:12.377Z,80.42
2019-03-13T21:14:15.914Z,80.30
2019-03-13T21:18:19.677Z,80.19
2019-03-13T21:22:23.215Z,80.18
2019-03-13T21:26:26.851Z,80.35
2019-03-13T21:30:30.706Z,80.55
2019-03-13T21:34:34.400Z,80.84
2019-03-13T21:38:37.934Z,81.28
2019-03-13T21:42:41.683Z,81.26
2019-03-13T21:46:45.214Z,81.36
2019-03-13T21:50:50.402Z,81.70
2019-03-13T21:54:54.381Z,82.03
2019-03-13T21:58:58.038Z,81.92
2019-03-13T22:03:01.576Z,81.46
2019-03-13T22:07:05.291Z,81.78
2019-03-13T22:11:08.841Z,81.21
2019-03-13T22:15:13.610Z,81.22
2019-03-13T22:19:17.244Z,80.90
2019-03-13T22:23:20.806Z,81.09
2019-03-13T22:27:24.333Z,80.98
2019-03-13T22:31:27.982Z,81.34
2019-03-13T22:35:31.609Z,81.28
2019-03-13T22:39:35.169Z,80.90
2019-03-13T22:43:38.709Z,80.74
2019-03-13T22:47:43.365Z,80.19
2019-03-13T22:51:47.296Z,79.95
2019-03-13T22:55:50.970Z,79.86
2019-03-13T22:59:54.513Z,80.02
2019-03-13T23:03:58.152Z,79.63
2019-03-13T23:08:01.882Z,79.70
2019-03-13T23:12:05.637Z,79.65
2019-03-13T23:16:09.273Z,79.67
2019-03-13T23:20:13.107Z,79.23
2019-03-13T23:24:17.943Z,79.46
2019-03-13T23:28:21.643Z,79.39
2019-03-13T23:32:25.155Z,79.21
2019-03-13T23:36:28.804Z,79.35
2019-03-13T23:40:32.318Z,79.42
2019-03-13T23:44:35.878Z,79.19
2019-03-13T23:48:39.397Z,79.68
2019-03-13T23:52:42.992Z,79.79
2019-03-13T23:56:46.520Z,79.52
